Time;durP1;ratioP1;P1;durP2;ratioP2;P2;SDS_P1;SDS_P2;PMS_P1;PMS_P2;Temp;Humidity;BMP_temperature;BMP_pressure;BME280_temperature;BME280_humidity;BME280_pressure;Samples;Min_cycle;Max_cycle;Signal;HPM_P1;HPM_P2
2023/10/19 00:00:21;;;;;;;28.10;17.73;;;;;;;6.39;100.00;96963.53;6108909;19;20007;-72
2023/10/19 00:02:22;;;;;;;25.30;15.80;;;;;;;6.40;100.00;96968.63;6102825;19;20048;-72
2023/10/19 00:04:23;;;;;;;23.02;14.02;;;;;;;6.35;100.00;96971.75;6109957;19;20008;-73
2023/10/19 00:06:23;;;;;;;22.02;14.38;;;;;;;6.35;100.00;96954.50;6110430;19;20010;-72
2023/10/19 00:08:24;;;;;;;22.10;13.80;;;;;;;6.34;100.00;96952.91;6109344;19;20020;-73
2023/10/19 00:10:28;;;;;;;19.02;12.93;;;;;;;6.35;100.00;96957.22;6108717;19;20380;-73
2023/10/19 00:12:29;;;;;;;21.25;12.48;;;;;;;6.31;100.00;96943.50;6108525;19;20006;-73
2023/10/19 00:14:29;;;;;;;19.98;12.35;;;;;;;6.29;100.00;96939.53;6103421;19;20007;-73
2023/10/19 00:16:30;;;;;;;19.13;13.15;;;;;;;6.30;100.00;96936.44;6107298;19;20010;-72
2023/10/19 00:18:34;;;;;;;21.60;12.68;;;;;;;6.31;100.00;96937.22;6108281;19;20463;-72
2023/10/19 00:22:36;;;;;;;20.27;13.02;;;;;;;6.32;100.00;96930.53;6107813;19;20375;-72
2023/10/19 00:24:36;;;;;;;22.83;13.80;;;;;;;6.32;100.00;96925.06;6106147;19;20023;-72
2023/10/19 00:26:37;;;;;;;18.75;12.85;;;;;;;6.31;100.00;96932.50;6106898;19;20007;-72
2023/10/19 00:28:39;;;;;;;20.33;12.75;;;;;;;6.30;100.00;96921.91;6109926;19;20458;-72
2023/10/19 00:30:42;;;;;;;19.42;12.70;;;;;;;6.30;100.00;96922.69;6108664;19;20002;-72
2023/10/19 00:32:42;;;;;;;20.58;13.07;;;;;;;6.33;100.00;96919.16;6108204;19;20315;-72
2023/10/19 00:34:50;;;;;;;19.10;12.20;;;;;;;6.31;100.00;96920.75;6109578;19;20007;-72
2023/10/19 00:36:51;;;;;;;21.23;12.20;;;;;;;6.30;100.00;96910.94;6109586;19;20007;-72
2023/10/19 00:38:53;;;;;;;23.67;14.07;;;;;;;6.30;100.00;96910.94;6110497;19;20023;-72
2023/10/19 00:40:58;;;;;;;22.57;13.03;;;;;;;6.29;100.00;96907.41;6108992;19;20003;-72
2023/10/19 00:43:06;;;;;;;19.52;12.50;;;;;;;6.31;100.00;96901.50;6108796;19;20014;-72
2023/10/19 00:45:12;;;;;;;22.08;13.90;;;;;;;6.33;100.00;96904.66;6109032;19;20026;-73
2023/10/19 00:47:13;;;;;;;19.20;12.00;;;;;;;6.34;100.00;96896.00;6108883;19;20014;-73
2023/10/19 00:49:14;;;;;;;22.08;13.45;;;;;;;6.33;100.00;96896.41;6109566;19;20070;-72
2023/10/19 00:53:29;;;;;;;20.48;12.73;;;;;;;6.34;100.00;96887.00;6108389;19;20011;-72
2023/10/19 00:55:30;;;;;;;22.23;13.15;;;;;;;6.34;100.00;96881.50;6107756;19;20009;-73
2023/10/19 00:57:34;;;;;;;25.17;13.75;;;;;;;6.36;100.00;96881.88;6108760;19;20107;-72
2023/10/19 00:59:47;;;;;;;22.70;14.40;;;;;;;6.35;100.00;96877.56;6108989;19;20010;-72
2023/10/19 01:01:53;;;;;;;21.55;12.90;;;;;;;6.35;100.00;96875.59;6109254;19;20805;-72
2023/10/19 01:03:56;;;;;;;21.40;14.65;;;;;;;6.34;100.00;96867.75;6107576;19;20353;-72
2023/10/19 01:05:57;;;;;;;;;;;;;;;6.35;100.00;96866.59;6109542;19;20463;-72
2023/10/19 01:08:02;;;;;;;24.52;14.07;;;;;;;6.35;100.00;96858.34;6109180;19;19918;-72
2023/10/19 01:10:08;;;;;;;22.00;14.60;;;;;;;6.38;100.00;96850.13;6107956;19;20570;-72
2023/10/19 01:13:09;;;;;;;22.98;14.20;;;;;;;6.36;100.00;96840.69;6107069;19;20331;-72
2023/10/19 01:14:38;;;;;;;21.75;13.50;;;;;;;6.36;100.00;96840.69;6106653;19;20011;-72
2023/10/19 01:16:38;;;;;;;24.40;14.18;;;;;;;6.36;100.00;96826.94;6107596;19;20547;-72
2023/10/19 01:18:42;;;;;;;19.58;12.05;;;;;;;6.34;100.00;96824.59;6107408;19;20003;-72
2023/10/19 01:20:54;;;;;;;22.02;13.38;;;;;;;6.37;100.00;96831.25;6107207;19;20006;-72
2023/10/19 01:25:10;;;;;;;23.38;14.60;;;;;;;6.38;100.00;96824.63;6108356;19;20021;-72
2023/10/19 01:27:11;;;;;;;20.15;13.02;;;;;;;6.38;100.00;96819.13;6108778;19;20333;-72
2023/10/19 01:29:16;;;;;;;20.77;12.88;;;;;;;6.38;100.00;96808.13;6108723;19;20041;-72
2023/10/19 01:31:30;;;;;;;21.38;13.98;;;;;;;6.39;100.00;96809.72;6108193;19;20010;-72
2023/10/19 01:33:31;;;;;;;22.35;13.18;;;;;;;6.40;100.00;96809.31;6105452;19;20021;-73
2023/10/19 01:36:10;;;;;;;23.30;13.73;;;;;;;6.41;100.00;96804.59;6107255;19;20391;-73
2023/10/19 01:37:51;;;;;;;26.38;15.20;;;;;;;6.44;100.00;96799.09;6106910;19;20357;-72
2023/10/19 01:39:52;;;;;;;28.52;15.63;;;;;;;6.46;100.00;96798.72;6107736;19;20074;-72
2023/10/19 01:41:52;;;;;;;25.83;15.57;;;;;;;6.47;100.00;96792.06;6107645;19;20325;-72
2023/10/19 01:43:53;;;;;;;26.60;14.75;;;;;;;6.48;100.00;96788.91;6106560;19;20002;-72
2023/10/19 01:45:56;;;;;;;23.77;14.50;;;;;;;6.48;100.00;96786.16;6107484;19;20062;-72
2023/10/19 01:47:59;;;;;;;27.20;15.85;;;;;;;6.51;100.00;96787.34;6107327;19;20011;-72
2023/10/19 01:50:00;;;;;;;23.40;14.68;;;;;;;6.49;100.00;96778.69;6106682;19;20071;-72
2023/10/19 01:52:00;;;;;;;29.17;16.27;;;;;;;6.50;100.00;96788.50;6106670;19;20479;-72
2023/10/19 01:54:01;;;;;;;23.80;15.50;;;;;;;6.49;100.00;96770.47;6109872;19;20015;-72
2023/10/19 01:56:05;;;;;;;23.95;14.90;;;;;;;6.51;100.00;96770.06;6112656;19;20013;-72
2023/10/19 01:58:05;;;;;;;25.60;15.57;;;;;;;6.51;100.00;96761.81;6112953;19;20455;-72
2023/10/19 02:00:10;;;;;;;27.35;15.90;;;;;;;6.53;100.00;96765.72;6112609;19;20032;-72
2023/10/19 02:02:11;;;;;;;22.38;13.93;;;;;;;6.55;100.00;96763.41;6112282;19;20010;-72
2023/10/19 02:04:13;;;;;;;24.60;14.43;;;;;;;6.54;100.00;96753.59;6110871;19;20018;-72
2023/10/19 02:06:21;;;;;;;26.67;15.13;;;;;;;6.53;100.00;96754.75;6113884;19;20010;-72
2023/10/19 02:08:25;;;;;;;24.85;15.43;;;;;;;6.54;100.00;96750.84;6113521;19;20540;-72
2023/10/19 02:10:27;;;;;;;22.50;14.60;;;;;;;6.54;100.00;96755.53;6112320;19;20066;-72
2023/10/19 02:12:27;;;;;;;21.55;13.98;;;;;;;6.54;100.00;96756.34;6110824;19;20007;-72
2023/10/19 02:14:31;;;;;;;25.27;15.05;;;;;;;6.56;100.00;96762.22;6112363;19;20031;-72
2023/10/19 02:16:32;;;;;;;23.92;14.63;;;;;;;6.56;100.00;96747.69;6112122;19;20133;-72
2023/10/19 02:18:34;;;;;;;22.70;13.95;;;;;;;6.57;100.00;96741.03;6112962;19;20507;-72
2023/10/19 02:20:35;;;;;;;25.15;14.98;;;;;;;6.56;100.00;96734.75;6112031;19;20031;-72
2023/10/19 02:22:35;;;;;;;24.35;16.30;;;;;;;6.58;100.00;96740.63;6111269;19;20014;-72
2023/10/19 02:24:36;;;;;;;23.85;14.75;;;;;;;6.55;100.00;96721.41;6112366;19;20006;-73
2023/10/19 02:26:38;;;;;;;24.58;14.50;;;;;;;6.59;100.00;96714.72;6112954;19;20014;-72
2023/10/19 02:28:39;;;;;;;27.48;15.15;;;;;;;6.60;100.00;96712.75;6111614;19;20010;-72
2023/10/19 02:30:42;;;;;;;28.80;16.27;;;;;;;6.59;100.00;96714.72;6111931;19;20044;-73
2023/10/19 02:32:43;;;;;;;24.88;14.57;;;;;;;6.62;100.00;96702.13;6111176;19;20378;-73
2023/10/19 02:34:43;;;;;;;24.02;15.38;;;;;;;6.64;100.00;96708.03;6112120;19;20007;-73
2023/10/19 02:36:45;;;;;;;26.98;14.68;;;;;;;6.62;100.00;96697.44;6111658;19;20492;-73
2023/10/19 02:38:49;;;;;;;23.60;14.43;;;;;;;6.63;100.00;96699.00;6112397;19;20027;-72
2023/10/19 02:40:50;;;;;;;20.33;13.43;;;;;;;6.64;100.00;96689.59;6112311;19;20389;-72
2023/10/19 02:42:50;;;;;;;22.30;12.98;;;;;;;6.63;100.00;96684.50;6110777;19;20006;-72
2023/10/19 02:44:52;;;;;;;20.52;13.18;;;;;;;6.64;100.00;96697.06;6111754;19;20082;-72
2023/10/19 02:46:58;;;;;;;25.25;14.77;;;;;;;6.65;100.00;96690.38;6113002;19;20003;-72
2023/10/19 02:49:12;;;;;;;21.60;13.35;;;;;;;6.65;100.00;96679.38;6111804;19;20024;-73
2023/10/19 02:51:13;;;;;;;22.73;13.35;;;;;;;6.66;100.00;96675.44;6107422;19;20337;-73
2023/10/19 02:53:13;;;;;;;25.88;15.27;;;;;;;6.71;100.00;96681.34;6109106;19;20027;-72
2023/10/19 02:55:16;;;;;;;23.55;14.50;;;;;;;6.74;100.00;96680.53;6111514;19;20413;-72
2023/10/19 02:57:16;;;;;;;;;;;;;;;6.82;100.00;96681.31;6113608;19;20010;-72
2023/10/19 02:59:22;;;;;;;27.60;14.95;;;;;;;6.82;100.00;96670.31;6111457;19;19907;-73
2023/10/19 03:01:22;;;;;;;25.35;14.32;;;;;;;6.87;100.00;96672.66;6110588;19;20640;-73
2023/10/19 03:03:23;;;;;;;23.08;14.27;;;;;;;6.84;100.00;96667.16;6110120;19;20105;-72
2023/10/19 03:05:25;;;;;;;25.35;15.32;;;;;;;6.84;100.00;96664.41;6111045;19;20006;-72
2023/10/19 03:07:26;;;;;;;23.55;14.55;;;;;;;6.86;100.00;96675.78;6107071;19;20021;-73
2023/10/19 03:11:27;;;;;;;23.67;14.45;;;;;;;6.83;100.00;96668.34;6112052;19;20062;-72
2023/10/19 03:13:28;;;;;;;21.33;12.90;;;;;;;6.85;100.00;96671.47;6110838;19;20006;-73
2023/10/19 03:15:32;;;;;;;20.85;13.15;;;;;;;6.85;100.00;96668.72;6111052;19;20007;-73
2023/10/19 03:17:33;;;;;;;24.73;13.52;;;;;;;6.85;100.00;96660.47;6111372;19;20019;-73
2023/10/19 03:19:34;;;;;;;22.90;13.05;;;;;;;6.85;100.00;96660.47;6111023;19;20008;-73
2023/10/19 03:21:42;;;;;;;26.25;14.02;;;;;;;6.83;100.00;96649.09;6111606;19;20022;-73
2023/10/19 03:23:43;;;;;;;21.58;13.45;;;;;;;6.87;100.00;96647.09;6109719;19;20089;-73
2023/10/19 03:25:56;;;;;;;24.27;13.48;;;;;;;6.90;100.00;96643.56;6111208;19;20017;-73
2023/10/19 03:27:57;;;;;;;22.63;13.80;;;;;;;6.89;100.00;96639.25;6111940;19;20007;-73
2023/10/19 03:30:00;;;;;;;21.17;13.57;;;;;;;6.92;100.00;96642.00;6110813;19;20094;-73
2023/10/19 03:32:01;;;;;;;26.02;14.73;;;;;;;6.94;100.00;96636.88;6109991;19;20006;-73
2023/10/19 03:34:05;;;;;;;20.55;13.13;;;;;;;6.95;100.00;96632.16;6109211;19;20011;-73
2023/10/19 03:36:09;;;;;;;20.40;13.27;;;;;;;6.95;100.00;96632.97;6110222;19;20807;-73
2023/10/19 03:38:18;;;;;;;27.73;15.98;;;;;;;6.96;100.00;96623.53;6111083;19;20351;-73
2023/10/19 03:40:29;;;;;;;27.42;16.45;;;;;;;7.01;100.00;96631.34;6110968;19;20264;-73
2023/10/19 03:42:32;;;;;;;22.73;14.57;;;;;;;7.07;100.00;96628.97;6108436;19;20014;-73
2023/10/19 03:47:01;;;;;;;24.77;15.50;;;;;;;7.09;100.00;96629.34;6110389;19;20007;-72
2023/10/19 03:49:13;;;;;;;30.20;17.60;;;;;;;7.14;100.00;96626.19;6111589;19;20024;-72
2023/10/19 03:51:14;;;;;;;26.60;15.25;;;;;;;7.15;100.00;96624.22;6111003;19;20018;-72
2023/10/19 03:53:14;;;;;;;28.42;16.48;;;;;;;7.15;100.00;96622.25;6109644;19;20516;-72
2023/10/19 03:55:18;;;;;;;29.38;16.27;;;;;;;7.14;100.00;96625.41;6111035;19;20542;-72
2023/10/19 03:57:25;;;;;;;29.42;16.15;;;;;;;7.14;100.00;96634.44;6110567;19;20348;-73
2023/10/19 03:59:29;;;;;;;29.40;16.55;;;;;;;7.17;100.00;96628.13;6109742;19;20550;-73
2023/10/19 04:01:31;;;;;;;24.70;15.25;;;;;;;7.14;100.00;96609.69;6103297;19;20031;-73
2023/10/19 04:03:31;;;;;;;26.77;16.35;;;;;;;7.14;100.00;96611.66;6107565;19;19995;-73
2023/10/19 04:05:37;;;;;;;28.08;16.35;;;;;;;7.09;100.00;96621.09;6110086;19;20005;-73
2023/10/19 04:07:38;;;;;;;28.00;16.30;;;;;;;7.11;100.00;96610.47;6105674;19;20006;-73
2023/10/19 04:09:56;;;;;;;28.13;16.17;;;;;;;7.16;100.00;96603.78;6105635;19;20017;-73
2023/10/19 04:11:57;;;;;;;25.80;16.17;;;;;;;7.13;100.00;96610.09;6106137;19;20030;-73
2023/10/19 04:14:03;;;;;;;26.52;16.48;;;;;;;7.11;100.00;96613.22;6105637;19;20497;-73
2023/10/19 04:16:03;;;;;;;24.33;15.25;;;;;;;7.12;100.00;96609.31;6101017;19;20010;-73
2023/10/19 04:18:11;;;;;;;27.05;15.98;;;;;;;7.09;100.00;96601.84;6107789;19;20070;-73
2023/10/19 04:22:23;;;;;;;27.58;15.13;;;;;;;7.13;100.00;96607.34;6107495;19;20395;-74
2023/10/19 04:24:23;;;;;;;26.95;16.40;;;;;;;7.10;100.00;96608.91;6109300;19;20010;-74
2023/10/19 04:26:24;;;;;;;23.90;15.15;;;;;;;7.10;100.00;96592.41;6105601;19;20014;-73
2023/10/19 04:28:31;;;;;;;29.52;16.15;;;;;;;7.09;100.00;96590.84;6102691;19;20030;-73
2023/10/19 04:30:33;;;;;;;28.58;16.58;;;;;;;7.16;100.00;96590.81;6101197;19;20479;-73
2023/10/19 04:32:35;;;;;;;29.08;16.45;;;;;;;7.18;100.00;96595.91;6106452;19;20014;-73
2023/10/19 04:34:36;;;;;;;25.00;15.35;;;;;;;7.18;100.00;96602.19;6109586;19;20655;-73
2023/10/19 04:36:39;;;;;;;27.77;17.43;;;;;;;7.21;100.00;96595.13;6109491;19;20040;-73
2023/10/19 04:38:40;;;;;;;31.10;17.45;;;;;;;7.19;100.00;96600.22;6108551;19;20015;-73
2023/10/19 04:40:40;;;;;;;24.67;15.40;;;;;;;7.15;100.00;96594.75;6107178;19;20515;-72
2023/10/19 04:42:40;;;;;;;28.20;16.00;;;;;;;7.22;100.00;96591.19;6102236;19;20019;-72
2023/10/19 04:44:41;;;;;;;32.78;17.05;;;;;;;7.18;100.00;96588.44;6106716;19;20016;-72
2023/10/19 04:46:42;;;;;;;28.13;16.35;;;;;;;7.18;100.00;96588.44;6101065;19;20466;-72
2023/10/19 04:48:42;;;;;;;27.33;16.55;;;;;;;7.17;100.00;96589.63;6101350;19;20011;-72
2023/10/19 04:50:43;;;;;;;26.42;16.10;;;;;;;7.19;100.00;96579.00;6106408;19;20360;-72
2023/10/19 04:52:43;;;;;;;25.55;15.85;;;;;;;7.19;100.00;96587.25;6107280;19;19998;-72
2023/10/19 04:54:43;;;;;;;24.58;15.88;;;;;;;7.19;100.00;96580.97;6108679;19;20514;-72
2023/10/19 04:56:44;;;;;;;24.90;15.15;;;;;;;7.17;100.00;96564.88;6108438;19;20021;-72
2023/10/19 04:58:44;;;;;;;23.38;13.82;;;;;;;7.17;100.00;96564.09;6106797;19;20253;-72
2023/10/19 05:00:44;;;;;;;27.17;15.07;;;;;;;7.18;100.00;96558.19;6107664;19;20177;-72
2023/10/19 05:02:44;;;;;;;22.10;13.98;;;;;;;7.18;100.00;96560.94;6106763;19;20010;-72
2023/10/19 05:04:45;;;;;;;22.83;13.52;;;;;;;7.15;100.00;96555.47;6108293;19;20032;-72
2023/10/19 05:06:45;;;;;;;24.98;15.73;;;;;;;7.18;100.00;96560.94;6105544;19;20011;-72
2023/10/19 05:08:46;;;;;;;25.17;14.20;;;;;;;7.20;100.00;96566.84;6107183;19;20029;-72
2023/10/19 05:10:47;;;;;;;20.90;13.95;;;;;;;7.22;100.00;96572.72;6107662;19;20085;-72
2023/10/19 05:12:47;;;;;;;23.40;15.32;;;;;;;7.24;100.00;96567.59;6103256;19;20006;-72
2023/10/19 05:14:48;;;;;;;24.23;14.77;;;;;;;7.23;100.00;96568.78;6105689;19;20471;-72
2023/10/19 05:16:49;;;;;;;25.38;15.90;;;;;;;7.23;100.00;96562.50;6107235;19;20012;-72
2023/10/19 05:18:49;;;;;;;31.98;16.95;;;;;;;7.23;100.00;96560.53;6107486;19;20014;-72
2023/10/19 05:20:55;;;;;;;26.98;16.25;;;;;;;7.27;100.00;96560.50;6106635;19;20020;-72
2023/10/19 05:22:55;;;;;;;26.40;15.40;;;;;;;7.30;100.00;96559.72;6105838;19;20114;-72
2023/10/19 05:24:55;;;;;;;24.85;16.20;;;;;;;7.35;100.00;96559.25;6107630;19;20392;-72
2023/10/19 05:26:56;;;;;;;24.42;15.30;;;;;;;7.39;100.00;96562.78;6105683;19;20017;-72
2023/10/19 05:28:56;;;;;;;24.13;14.85;;;;;;;7.39;100.00;96570.25;6105248;19;20463;-72
2023/10/19 05:30:59;;;;;;;22.42;13.95;;;;;;;7.41;100.00;96565.13;6103671;19;20006;-72
2023/10/19 05:33:01;;;;;;;25.90;14.38;;;;;;;7.42;100.00;96575.72;6105127;19;20480;-72
2023/10/19 05:35:04;;;;;;;23.38;13.95;;;;;;;7.44;100.00;96583.56;6107432;19;20350;-72
2023/10/19 05:37:05;;;;;;;24.83;14.07;;;;;;;7.47;100.00;96575.31;6104760;19;20589;-72
2023/10/19 05:39:09;;;;;;;24.25;15.07;;;;;;;7.53;100.00;96570.94;6103402;19;20017;-72
2023/10/19 05:41:10;;;;;;;22.88;14.18;;;;;;;7.53;100.00;96573.72;6106610;19;20003;-72
2023/10/19 05:43:11;;;;;;;23.67;15.00;;;;;;;7.60;100.00;96572.84;6105441;19;20026;-72
2023/10/19 05:45:16;;;;;;;21.50;13.57;;;;;;;7.61;100.00;96585.41;6103312;19;20002;-72
2023/10/19 05:47:16;;;;;;;23.83;14.68;;;;;;;7.56;100.00;96585.88;6103760;19;20489;-72
2023/10/19 05:49:17;;;;;;;22.15;13.90;;;;;;;7.54;100.00;96585.50;6101147;19;20014;-72
2023/10/19 05:51:17;;;;;;;21.25;14.15;;;;;;;7.53;100.00;96581.16;6105214;19;20014;-72
2023/10/19 05:53:22;;;;;;;24.80;15.10;;;;;;;7.54;100.00;96586.28;6104946;19;20003;-72
2023/10/19 05:55:22;;;;;;;29.85;18.42;;;;;;;7.58;100.00;96592.53;6106710;19;20021;-72
2023/10/19 05:57:24;;;;;;;28.92;16.92;;;;;;;7.61;100.00;96590.91;6107342;19;20014;-72
2023/10/19 05:59:26;;;;;;;26.02;15.02;;;;;;;7.65;100.00;96596.41;6106091;19;19999;-72
2023/10/19 06:01:26;;;;;;;21.95;14.07;;;;;;;7.60;100.00;96598.41;6105860;19;20003;-72
2023/10/19 06:03:27;;;;;;;24.17;16.20;;;;;;;7.60;100.00;96600.38;6105436;19;20024;-72
2023/10/19 06:05:30;;;;;;;24.23;15.05;;;;;;;7.61;100.00;96601.94;6104734;19;19999;-72
2023/10/19 06:07:30;;;;;;;21.60;13.85;;;;;;;7.65;100.00;96602.69;6103724;19;20018;-72
2023/10/19 06:09:30;;;;;;;21.25;13.38;;;;;;;7.67;100.00;96605.03;6104284;19;20486;-72
2023/10/19 06:11:34;;;;;;;25.02;13.82;;;;;;;7.68;100.00;96598.34;6103649;19;20074;-72
2023/10/19 06:13:34;;;;;;;20.58;12.82;;;;;;;7.70;100.00;96594.03;6105174;19;20017;-72
2023/10/19 06:15:35;;;;;;;21.55;12.35;;;;;;;7.77;100.00;96595.91;6106574;19;20014;-72
2023/10/19 06:17:35;;;;;;;17.48;11.27;;;;;;;7.78;100.00;96605.78;6105814;19;20082;-72
2023/10/19 06:19:37;;;;;;;17.10;10.57;;;;;;;7.81;100.00;96607.69;6105941;19;20494;-72
2023/10/19 06:21:38;;;;;;;15.23;10.07;;;;;;;7.83;100.00;96597.84;6105429;19;20003;-72
2023/10/19 06:23:38;;;;;;;12.82;9.13;;;;;;;7.86;100.00;96599.81;6105136;19;20003;-72
2023/10/19 06:25:38;;;;;;;13.20;9.00;;;;;;;7.92;100.00;96607.63;6105437;19;20010;-72
2023/10/19 06:27:39;;;;;;;11.90;8.48;;;;;;;7.97;100.00;96598.94;6106725;19;20003;-72
2023/10/19 06:29:39;;;;;;;11.77;7.70;;;;;;;8.00;100.00;96598.88;6105576;19;20003;-72
2023/10/19 06:31:39;;;;;;;11.80;7.25;;;;;;;8.09;100.00;96603.91;6105853;19;20015;-72
2023/10/19 06:33:41;;;;;;;13.02;7.63;;;;;;;8.14;100.00;96603.50;6105182;19;20010;-72
2023/10/19 06:35:41;;;;;;;9.75;6.78;;;;;;;8.22;100.00;96610.50;6105811;19;20040;-72
2023/10/19 06:37:42;;;;;;;11.63;7.40;;;;;;;8.24;100.00;96621.88;6105833;19;20045;-72
2023/10/19 06:39:42;;;;;;;10.68;7.85;;;;;;;8.27;100.00;96610.03;6108038;19;20038;-72
2023/10/19 06:41:42;;;;;;;15.77;8.50;;;;;;;8.26;100.00;96604.94;6110736;19;20099;-72
2023/10/19 06:43:43;;;;;;;12.38;7.60;;;;;;;8.23;100.00;96606.56;6110456;19;20028;-72
2023/10/19 06:45:46;;;;;;;13.90;7.78;;;;;;;8.23;100.00;96617.56;6110456;19;20376;-72
2023/10/19 06:47:49;;;;;;;10.85;7.43;;;;;;;8.28;100.00;96611.63;6111292;19;20010;-72
2023/10/19 06:49:50;;;;;;;11.43;7.82;;;;;;;8.29;100.00;96615.19;6111429;19;20010;-72
2023/10/19 06:51:50;;;;;;;10.95;7.30;;;;;;;8.23;100.00;96612.06;6111570;19;20018;-72
2023/10/19 06:53:51;;;;;;;11.40;7.63;;;;;;;8.24;100.00;96607.34;6109141;19;20018;-72
2023/10/19 06:55:51;;;;;;;10.05;7.50;;;;;;;8.30;100.00;96614.75;6110842;19;20017;-72
2023/10/19 06:57:53;;;;;;;10.65;8.02;;;;;;;8.36;100.00;96612.38;6110934;19;20022;-72
2023/10/19 06:59:53;;;;;;;11.15;7.78;;;;;;;8.39;100.00;96615.09;6110391;19;20014;-72
2023/10/19 07:01:54;;;;;;;7.72;6.20;;;;;;;8.38;100.00;96610.78;6110175;19;20007;-72
2023/10/19 07:03:56;;;;;;;12.30;7.78;;;;;;;8.37;100.00;96611.97;6109907;19;20567;-72
2023/10/19 07:05:58;;;;;;;9.57;7.60;;;;;;;8.36;100.00;96618.69;6110323;19;20010;-72
2023/10/19 07:07:59;;;;;;;12.52;7.65;;;;;;;8.39;100.00;96619.81;6108464;19;20046;-72
2023/10/19 07:09:59;;;;;;;12.15;8.48;;;;;;;8.47;100.00;96615.03;6109261;19;20007;-72
2023/10/19 07:12:00;;;;;;;12.40;9.27;;;;;;;8.49;100.00;96612.63;6110948;19;20378;-72
2023/10/19 07:14:01;;;;;;;13.25;9.40;;;;;;;8.53;100.00;96619.69;6108337;19;20034;-72
2023/10/19 07:16:03;;;;;;;15.38;8.50;;;;;;;8.61;100.00;96612.13;6109889;19;20516;-72
2023/10/19 07:18:06;;;;;;;12.82;8.90;;;;;;;8.65;100.00;96604.59;6109429;19;20066;-72
2023/10/19 07:20:08;;;;;;;11.38;8.43;;;;;;;8.63;100.00;96613.28;6110874;19;20007;-72
2023/10/19 07:22:09;;;;;;;10.52;8.20;;;;;;;8.67;100.00;96607.72;6107879;19;20015;-72
2023/10/19 07:24:11;;;;;;;12.98;8.27;;;;;;;8.68;100.00;96601.78;6108299;19;20017;-72
2023/10/19 07:26:14;;;;;;;10.90;8.10;;;;;;;8.71;100.00;96608.47;6110324;19;20475;-72
2023/10/19 07:28:15;;;;;;;12.35;8.90;;;;;;;8.75;100.00;96609.19;6111558;19;20018;-72
2023/10/19 07:30:21;;;;;;;14.15;8.13;;;;;;;8.80;100.00;96602.47;6111024;19;20011;-72
2023/10/19 07:32:21;;;;;;;12.38;8.25;;;;;;;8.82;100.00;96614.63;6109798;19;20049;-72
2023/10/19 07:34:27;;;;;;;14.52;9.40;;;;;;;8.88;100.00;96603.94;6110492;19;20011;-72
2023/10/19 07:36:28;;;;;;;11.50;8.98;;;;;;;8.89;100.00;96600.75;6110332;19;20002;-72
2023/10/19 07:38:30;;;;;;;11.35;8.45;;;;;;;8.90;100.00;96602.31;6110525;19;20352;-72
2023/10/19 07:40:31;;;;;;;13.05;9.30;;;;;;;8.91;100.00;96600.34;6109881;19;20006;-72
2023/10/19 07:42:34;;;;;;;11.57;8.27;;;;;;;8.93;100.00;96601.50;6108784;19;20007;-72
2023/10/19 07:44:34;;;;;;;;;;;;;;;9.01;100.00;96604.94;6110165;19;20006;-72
2023/10/19 07:46:35;;;;;;;12.40;8.73;;;;;;;9.04;100.00;96593.09;6110945;19;19932;-72
2023/10/19 07:48:35;;;;;;;10.85;8.18;;;;;;;9.11;100.00;96589.47;6109414;19;20011;-72
2023/10/19 07:50:40;;;;;;;11.25;8.70;;;;;;;9.16;100.00;96600.03;6108026;19;20014;-72
2023/10/19 07:52:40;;;;;;;12.45;9.85;;;;;;;9.23;100.00;96594.44;6108073;19;20546;-72
2023/10/19 07:54:41;;;;;;;10.90;8.68;;;;;;;9.25;100.00;96592.03;6109549;19;20020;-72
2023/10/19 07:56:41;;;;;;;11.95;8.65;;;;;;;9.33;100.00;96587.97;6109785;19;20022;-72
2023/10/19 07:58:42;;;;;;;10.00;7.65;;;;;;;9.39;100.00;96591.84;6109513;19;19998;-72
2023/10/19 08:00:42;;;;;;;9.90;7.15;;;;;;;9.45;100.00;96595.72;6109546;19;20006;-72
2023/10/19 08:02:45;;;;;;;11.68;7.05;;;;;;;9.48;100.00;96596.84;6108665;19;20006;-72
2023/10/19 08:04:45;;;;;;;8.40;6.25;;;;;;;9.51;100.00;96582.97;6109274;19;20389;-72
2023/10/19 08:06:47;;;;;;;10.30;7.25;;;;;;;9.56;100.00;96590.81;6107271;19;20014;-72
2023/10/19 08:08:47;;;;;;;8.63;6.28;;;;;;;9.62;100.00;96587.59;6109517;19;20030;-72
2023/10/19 08:10:48;;;;;;;9.48;6.10;;;;;;;9.64;100.00;96585.97;6107679;19;20509;-72
2023/10/19 08:12:49;;;;;;;11.23;8.27;;;;;;;9.72;100.00;96581.88;6107418;19;20010;-72
2023/10/19 08:14:49;;;;;;;9.77;7.15;;;;;;;9.75;100.00;96574.75;6109335;19;20017;-72
2023/10/19 08:16:50;;;;;;;11.98;8.38;;;;;;;9.87;100.00;96587.19;6109820;19;20413;-72
2023/10/19 08:18:52;;;;;;;9.55;7.30;;;;;;;9.94;100.00;96589.84;6109010;19;20010;-72
2023/10/19 08:20:53;;;;;;;9.50;7.05;;;;;;;9.99;100.00;96586.59;6109016;19;20010;-72
2023/10/19 08:22:56;;;;;;;9.73;7.63;;;;;;;10.08;100.00;96582.09;6107094;19;20037;-72
2023/10/19 08:24:57;;;;;;;9.40;7.05;;;;;;;10.12;100.00;96582.03;6109193;19;20010;-72
2023/10/19 08:26:57;;;;;;;9.40;7.25;;;;;;;10.16;100.00;96579.19;6108719;19;20013;-72
2023/10/19 08:29:00;;;;;;;9.68;7.60;;;;;;;10.18;100.00;96585.91;6108366;19;20010;-72
2023/10/19 08:31:01;;;;;;;8.82;7.07;;;;;;;10.19;100.00;96590.22;6108706;19;20038;-72
2023/10/19 08:33:01;;;;;;;12.63;8.23;;;;;;;10.21;100.00;96587.03;6108415;19;20007;-72
2023/10/19 08:35:03;;;;;;;10.57;8.23;;;;;;;10.25;100.00;96587.75;6108751;19;20021;-72
2023/10/19 08:37:07;;;;;;;9.27;7.28;;;;;;;10.24;100.00;96586.19;6107647;19;20040;-72
2023/10/19 08:39:09;;;;;;;8.43;6.65;;;;;;;10.22;100.00;96589.41;6108478;19;20006;-72
2023/10/19 08:41:09;;;;;;;9.40;7.18;;;;;;;10.25;100.00;96585.78;6108650;19;20007;-72
2023/10/19 08:43:13;;;;;;;9.50;7.68;;;;;;;10.35;100.00;96595.88;6107466;19;20014;-72
2023/10/19 08:45:14;;;;;;;15.10;10.77;;;;;;;10.39;100.00;96590.28;6108805;19;20010;-72
2023/10/19 08:47:15;;;;;;;21.35;12.32;;;;;;;10.48;100.00;96598.03;6109198;19;20506;-72
2023/10/19 08:49:16;;;;;;;15.15;10.65;;;;;;;10.58;100.00;96608.88;6108985;19;20022;-72
2023/10/19 08:51:18;;;;;;;10.18;7.70;;;;;;;10.64;100.00;96596.13;6107568;19;20034;-72
2023/10/19 08:53:21;;;;;;;9.93;7.30;;;;;;;10.66;100.00;96593.72;6106936;19;20019;-72
2023/10/19 08:55:21;;;;;;;9.48;6.93;;;;;;;10.76;100.00;96596.69;6109097;19;20010;-72
2023/10/19 08:57:22;;;;;;;11.55;8.85;;;;;;;10.88;100.00;96605.16;6108459;19;20014;-72
2023/10/19 08:59:23;;;;;;;9.38;6.97;;;;;;;10.88;100.00;96596.06;6107545;19;20019;-72
2023/10/19 09:01:23;;;;;;;9.52;7.40;;;;;;;10.91;100.00;96595.22;6108143;19;20487;-72
2023/10/19 09:03:25;;;;;;;9.80;6.72;;;;;;;10.96;100.00;96587.22;6106992;19;20585;-72
2023/10/19 09:05:25;;;;;;;9.73;7.90;;;;;;;11.00;100.00;96589.88;6107702;19;20320;-72
2023/10/19 09:07:30;;;;;;;10.68;8.48;;;;;;;11.05;100.00;96574.78;6106591;19;20017;-72
2023/10/19 09:09:32;;;;;;;11.50;9.35;;;;;;;11.10;100.00;96577.06;6108236;19;20021;-72
2023/10/19 09:11:33;;;;;;;12.05;8.48;;;;;;;11.09;100.00;96581.81;6107907;19;20002;-72
2023/10/19 09:13:49;;;;;;;10.85;7.82;;;;;;;11.14;100.00;96578.53;6107174;19;20021;-72
2023/10/19 09:15:53;;;;;;;9.70;6.95;;;;;;;11.15;100.00;96580.09;6107886;19;20006;-72
2023/10/19 09:17:54;;;;;;;7.90;6.82;;;;;;;11.18;100.00;96572.94;6107993;19;20070;-72
2023/10/19 09:19:56;;;;;;;7.88;6.40;;;;;;;11.21;100.00;96569.31;6108332;19;20010;-72
2023/10/19 09:21:58;;;;;;;8.73;5.70;;;;;;;11.24;100.00;96571.22;6107146;19;20018;-72
2023/10/19 09:23:58;;;;;;;6.93;6.03;;;;;;;11.25;100.00;96565.25;6105871;19;20362;-72
2023/10/19 09:26:05;;;;;;;9.23;6.40;;;;;;;11.26;100.00;96557.75;6106745;19;20002;-72
2023/10/19 09:28:05;;;;;;;11.00;7.88;;;;;;;11.33;100.00;96557.56;6107073;19;20024;-72
2023/10/19 09:30:08;;;;;;;10.07;7.05;;;;;;;11.37;100.00;96549.97;6107953;19;20463;-73
2023/10/19 09:32:09;;;;;;;12.15;8.57;;;;;;;11.41;100.00;96558.19;6106591;19;20062;-72
2023/10/19 09:34:11;;;;;;;17.08;11.35;;;;;;;11.49;100.00;96549.28;6106466;19;20023;-72
2023/10/19 09:36:15;;;;;;;9.55;7.43;;;;;;;11.54;100.00;96546.00;6105729;19;20010;-72